Terminal Aerodrome Forecast
Issued by NWS Cleveland, OH

Home | Current Version | Previous Version | Graphics & Text | Print | Product List | Glossary Off
Versions: 1 2 3 4 5 6 7 8 9 10 11 12 13 14 15 16 17

000
FTUS41 KCLE 262300 RRA
TAFCAK
TAF
KCAK 262341Z 2700/2724 21009KT P6SM OVC250
     FM270800 21007KT P6SM OVC025
     FM271400 20010KT P6SM OVC250
     FM272300 21010KT 4SM -RA BR OVC015=

USA.gov is the U.S. government's official web portal to all federal, state and local government web resources and services.